sensor_id;sensor_type;location;lat;lon;timestamp;P1;durP1;ratioP1;P2;durP2;ratioP2
45198;SDS011;30941;46.422;18.772;2023-04-09T00:01:52;41.00;;;25.95;;
45198;SDS011;30941;46.422;18.772;2023-04-09T00:04:18;40.50;;;25.42;;
45198;SDS011;30941;46.422;18.772;2023-04-09T00:06:43;42.95;;;27.27;;
45198;SDS011;30941;46.422;18.772;2023-04-09T00:09:09;39.20;;;24.88;;
45198;SDS011;30941;46.422;18.772;2023-04-09T00:11:35;36.85;;;23.52;;
45198;SDS011;30941;46.422;18.772;2023-04-09T00:14:00;35.42;;;23.13;;
45198;SDS011;30941;46.422;18.772;2023-04-09T00:16:25;36.40;;;22.65;;
45198;SDS011;30941;46.422;18.772;2023-04-09T00:18:51;34.65;;;22.30;;
45198;SDS011;30941;46.422;18.772;2023-04-09T00:21:16;33.50;;;22.88;;
45198;SDS011;30941;46.422;18.772;2023-04-09T00:23:42;35.72;;;23.00;;
45198;SDS011;30941;46.422;18.772;2023-04-09T00:26:07;28.63;;;20.30;;
45198;SDS011;30941;46.422;18.772;2023-04-09T00:28:33;32.95;;;21.17;;
45198;SDS011;30941;46.422;18.772;2023-04-09T00:31:00;32.20;;;22.27;;
45198;SDS011;30941;46.422;18.772;2023-04-09T00:33:25;31.70;;;20.77;;
45198;SDS011;30941;46.422;18.772;2023-04-09T00:35:51;33.92;;;21.23;;
45198;SDS011;30941;46.422;18.772;2023-04-09T00:38:16;29.17;;;19.58;;
45198;SDS011;30941;46.422;18.772;2023-04-09T00:40:42;31.35;;;20.15;;
45198;SDS011;30941;46.422;18.772;2023-04-09T00:43:07;29.75;;;19.25;;
45198;SDS011;30941;46.422;18.772;2023-04-09T00:45:32;28.80;;;19.08;;
45198;SDS011;30941;46.422;18.772;2023-04-09T00:47:58;29.67;;;19.90;;
45198;SDS011;30941;46.422;18.772;2023-04-09T00:50:23;28.42;;;18.58;;
45198;SDS011;30941;46.422;18.772;2023-04-09T00:52:49;28.52;;;19.15;;
45198;SDS011;30941;46.422;18.772;2023-04-09T00:55:14;30.70;;;19.23;;
45198;SDS011;30941;46.422;18.772;2023-04-09T00:57:40;30.92;;;19.75;;
45198;SDS011;30941;46.422;18.772;2023-04-09T01:00:06;31.65;;;19.50;;
45198;SDS011;30941;46.422;18.772;2023-04-09T01:02:32;31.77;;;20.23;;
45198;SDS011;30941;46.422;18.772;2023-04-09T01:04:58;33.13;;;21.70;;
45198;SDS011;30941;46.422;18.772;2023-04-09T01:10:28;33.70;;;20.10;;
45198;SDS011;30941;46.422;18.772;2023-04-09T01:13:03;39.03;;;22.90;;
45198;SDS011;30941;46.422;18.772;2023-04-09T01:15:33;34.97;;;21.25;;
45198;SDS011;30941;46.422;18.772;2023-04-09T01:18:10;36.70;;;21.98;;
45198;SDS011;30941;46.422;18.772;2023-04-09T01:26:01;32.75;;;21.02;;
45198;SDS011;30941;46.422;18.772;2023-04-09T01:28:32;32.42;;;20.00;;
45198;SDS011;30941;46.422;18.772;2023-04-09T01:31:00;34.15;;;21.90;;
45198;SDS011;30941;46.422;18.772;2023-04-09T01:33:28;34.65;;;21.88;;
45198;SDS011;30941;46.422;18.772;2023-04-09T01:35:54;34.17;;;20.60;;
45198;SDS011;30941;46.422;18.772;2023-04-09T01:38:21;31.02;;;19.55;;
45198;SDS011;30941;46.422;18.772;2023-04-09T01:40:47;33.70;;;20.23;;
45198;SDS011;30941;46.422;18.772;2023-04-09T01:43:14;34.45;;;19.58;;
45198;SDS011;30941;46.422;18.772;2023-04-09T01:45:39;31.13;;;19.45;;
45198;SDS011;30941;46.422;18.772;2023-04-09T01:48:06;29.23;;;18.30;;
45198;SDS011;30941;46.422;18.772;2023-04-09T01:50:31;32.65;;;20.00;;
45198;SDS011;30941;46.422;18.772;2023-04-09T01:52:57;32.30;;;20.25;;
45198;SDS011;30941;46.422;18.772;2023-04-09T01:55:24;32.35;;;19.98;;
45198;SDS011;30941;46.422;18.772;2023-04-09T01:57:49;30.75;;;19.45;;
45198;SDS011;30941;46.422;18.772;2023-04-09T02:00:15;32.15;;;20.17;;
45198;SDS011;30941;46.422;18.772;2023-04-09T02:05:30;30.52;;;20.00;;
45198;SDS011;30941;46.422;18.772;2023-04-09T02:08:00;33.75;;;19.98;;
45198;SDS011;30941;46.422;18.772;2023-04-09T02:10:27;33.30;;;21.23;;
45198;SDS011;30941;46.422;18.772;2023-04-09T02:12:55;32.75;;;19.20;;
45198;SDS011;30941;46.422;18.772;2023-04-09T02:15:22;30.95;;;19.50;;
45198;SDS011;30941;46.422;18.772;2023-04-09T02:17:48;30.67;;;19.92;;
45198;SDS011;30941;46.422;18.772;2023-04-09T02:20:17;33.50;;;20.17;;
45198;SDS011;30941;46.422;18.772;2023-04-09T02:22:43;33.35;;;20.05;;
45198;SDS011;30941;46.422;18.772;2023-04-09T02:25:09;30.40;;;19.35;;
45198;SDS011;30941;46.422;18.772;2023-04-09T02:27:34;29.88;;;19.60;;
45198;SDS011;30941;46.422;18.772;2023-04-09T02:30:00;29.65;;;19.35;;
45198;SDS011;30941;46.422;18.772;2023-04-09T02:32:25;30.58;;;19.77;;
45198;SDS011;30941;46.422;18.772;2023-04-09T02:34:51;30.45;;;19.67;;
45198;SDS011;30941;46.422;18.772;2023-04-09T02:37:16;33.33;;;19.70;;
45198;SDS011;30941;46.422;18.772;2023-04-09T02:39:42;29.83;;;20.02;;
45198;SDS011;30941;46.422;18.772;2023-04-09T02:42:07;31.45;;;19.70;;
45198;SDS011;30941;46.422;18.772;2023-04-09T02:44:33;31.52;;;20.48;;
45198;SDS011;30941;46.422;18.772;2023-04-09T02:46:58;32.22;;;21.40;;
45198;SDS011;30941;46.422;18.772;2023-04-09T02:49:24;32.50;;;20.95;;
45198;SDS011;30941;46.422;18.772;2023-04-09T02:51:49;35.47;;;23.77;;
45198;SDS011;30941;46.422;18.772;2023-04-09T02:54:14;37.08;;;22.73;;
45198;SDS011;30941;46.422;18.772;2023-04-09T02:56:40;37.25;;;24.13;;
45198;SDS011;30941;46.422;18.772;2023-04-09T02:59:05;33.53;;;21.67;;
45198;SDS011;30941;46.422;18.772;2023-04-09T03:01:30;35.58;;;22.80;;
45198;SDS011;30941;46.422;18.772;2023-04-09T03:03:56;35.55;;;22.95;;
45198;SDS011;30941;46.422;18.772;2023-04-09T03:06:21;37.33;;;22.85;;
45198;SDS011;30941;46.422;18.772;2023-04-09T03:08:47;37.25;;;21.77;;
45198;SDS011;30941;46.422;18.772;2023-04-09T03:11:12;33.85;;;21.38;;
45198;SDS011;30941;46.422;18.772;2023-04-09T03:13:37;34.72;;;21.95;;
45198;SDS011;30941;46.422;18.772;2023-04-09T03:16:03;31.48;;;20.52;;
45198;SDS011;30941;46.422;18.772;2023-04-09T03:18:28;36.63;;;22.33;;
45198;SDS011;30941;46.422;18.772;2023-04-09T03:20:54;35.10;;;22.70;;
45198;SDS011;30941;46.422;18.772;2023-04-09T03:23:19;34.17;;;22.65;;
45198;SDS011;30941;46.422;18.772;2023-04-09T03:25:44;34.47;;;21.63;;
45198;SDS011;30941;46.422;18.772;2023-04-09T03:28:10;36.97;;;21.67;;
45198;SDS011;30941;46.422;18.772;2023-04-09T03:30:35;34.97;;;22.48;;
45198;SDS011;30941;46.422;18.772;2023-04-09T03:33:00;33.83;;;21.48;;
45198;SDS011;30941;46.422;18.772;2023-04-09T03:35:26;38.35;;;22.17;;
45198;SDS011;30941;46.422;18.772;2023-04-09T03:37:51;33.00;;;20.88;;
45198;SDS011;30941;46.422;18.772;2023-04-09T03:40:16;35.25;;;21.00;;
45198;SDS011;30941;46.422;18.772;2023-04-09T03:42:42;32.47;;;22.20;;
45198;SDS011;30941;46.422;18.772;2023-04-09T03:45:08;35.15;;;20.60;;
45198;SDS011;30941;46.422;18.772;2023-04-09T03:47:33;32.83;;;21.52;;
45198;SDS011;30941;46.422;18.772;2023-04-09T03:49:59;31.20;;;21.17;;
45198;SDS011;30941;46.422;18.772;2023-04-09T03:52:24;32.15;;;20.90;;
45198;SDS011;30941;46.422;18.772;2023-04-09T03:54:49;34.78;;;21.13;;
45198;SDS011;30941;46.422;18.772;2023-04-09T03:57:15;32.85;;;20.75;;
45198;SDS011;30941;46.422;18.772;2023-04-09T03:59:40;33.33;;;21.58;;
45198;SDS011;30941;46.422;18.772;2023-04-09T04:02:05;32.90;;;21.20;;
45198;SDS011;30941;46.422;18.772;2023-04-09T04:04:31;33.83;;;21.65;;
45198;SDS011;30941;46.422;18.772;2023-04-09T04:06:56;33.90;;;21.00;;
45198;SDS011;30941;46.422;18.772;2023-04-09T04:09:21;37.65;;;21.52;;
45198;SDS011;30941;46.422;18.772;2023-04-09T04:11:47;31.85;;;21.33;;
45198;SDS011;30941;46.422;18.772;2023-04-09T04:14:12;33.97;;;22.17;;
45198;SDS011;30941;46.422;18.772;2023-04-09T04:16:40;34.35;;;21.52;;
45198;SDS011;30941;46.422;18.772;2023-04-09T04:19:06;37.60;;;22.85;;
45198;SDS011;30941;46.422;18.772;2023-04-09T04:21:31;38.10;;;23.90;;
45198;SDS011;30941;46.422;18.772;2023-04-09T04:23:57;37.63;;;23.23;;
45198;SDS011;30941;46.422;18.772;2023-04-09T04:26:22;35.75;;;20.67;;
45198;SDS011;30941;46.422;18.772;2023-04-09T04:28:47;41.28;;;23.25;;
45198;SDS011;30941;46.422;18.772;2023-04-09T04:31:13;40.03;;;24.02;;
45198;SDS011;30941;46.422;18.772;2023-04-09T04:33:39;36.42;;;22.95;;
45198;SDS011;30941;46.422;18.772;2023-04-09T04:36:11;40.03;;;24.17;;
45198;SDS011;30941;46.422;18.772;2023-04-09T04:38:37;41.30;;;25.23;;
45198;SDS011;30941;46.422;18.772;2023-04-09T04:41:03;42.83;;;25.55;;
45198;SDS011;30941;46.422;18.772;2023-04-09T04:43:29;38.40;;;23.58;;
45198;SDS011;30941;46.422;18.772;2023-04-09T04:45:55;39.40;;;23.60;;
45198;SDS011;30941;46.422;18.772;2023-04-09T04:48:20;40.70;;;24.42;;
45198;SDS011;30941;46.422;18.772;2023-04-09T04:50:46;38.90;;;24.88;;
45198;SDS011;30941;46.422;18.772;2023-04-09T04:53:11;36.70;;;23.67;;
45198;SDS011;30941;46.422;18.772;2023-04-09T04:55:37;33.60;;;21.55;;
45198;SDS011;30941;46.422;18.772;2023-04-09T04:58:05;37.92;;;22.20;;
45198;SDS011;30941;46.422;18.772;2023-04-09T05:00:30;34.42;;;22.55;;
45198;SDS011;30941;46.422;18.772;2023-04-09T05:02:56;37.55;;;23.55;;
45198;SDS011;30941;46.422;18.772;2023-04-09T05:05:21;36.40;;;23.60;;
45198;SDS011;30941;46.422;18.772;2023-04-09T05:07:46;35.92;;;23.45;;
45198;SDS011;30941;46.422;18.772;2023-04-09T05:10:12;36.15;;;23.85;;
45198;SDS011;30941;46.422;18.772;2023-04-09T05:12:37;38.50;;;23.77;;
45198;SDS011;30941;46.422;18.772;2023-04-09T05:15:03;38.95;;;25.42;;
45198;SDS011;30941;46.422;18.772;2023-04-09T05:17:28;42.28;;;26.52;;
45198;SDS011;30941;46.422;18.772;2023-04-09T05:19:54;38.97;;;25.33;;
45198;SDS011;30941;46.422;18.772;2023-04-09T05:22:20;34.60;;;22.83;;
45198;SDS011;30941;46.422;18.772;2023-04-09T05:24:45;33.45;;;22.20;;
45198;SDS011;30941;46.422;18.772;2023-04-09T05:27:11;32.17;;;22.88;;
45198;SDS011;30941;46.422;18.772;2023-04-09T05:29:36;36.33;;;22.63;;
45198;SDS011;30941;46.422;18.772;2023-04-09T05:32:01;35.08;;;22.63;;
45198;SDS011;30941;46.422;18.772;2023-04-09T05:34:27;35.38;;;23.67;;
45198;SDS011;30941;46.422;18.772;2023-04-09T05:36:53;31.80;;;21.77;;
45198;SDS011;30941;46.422;18.772;2023-04-09T05:39:18;34.45;;;22.40;;
45198;SDS011;30941;46.422;18.772;2023-04-09T05:41:44;32.13;;;22.45;;
45198;SDS011;30941;46.422;18.772;2023-04-09T05:44:10;33.58;;;22.15;;
45198;SDS011;30941;46.422;18.772;2023-04-09T05:46:36;33.33;;;22.98;;
45198;SDS011;30941;46.422;18.772;2023-04-09T05:49:02;33.45;;;22.50;;
45198;SDS011;30941;46.422;18.772;2023-04-09T05:51:27;32.03;;;20.73;;
45198;SDS011;30941;46.422;18.772;2023-04-09T05:53:53;35.17;;;22.63;;
45198;SDS011;30941;46.422;18.772;2023-04-09T05:56:18;34.38;;;21.33;;
45198;SDS011;30941;46.422;18.772;2023-04-09T05:58:46;33.63;;;21.73;;
45198;SDS011;30941;46.422;18.772;2023-04-09T06:01:12;34.33;;;21.58;;
45198;SDS011;30941;46.422;18.772;2023-04-09T06:03:37;32.92;;;21.42;;
45198;SDS011;30941;46.422;18.772;2023-04-09T06:06:03;34.08;;;22.58;;
45198;SDS011;30941;46.422;18.772;2023-04-09T06:08:28;37.00;;;22.27;;
45198;SDS011;30941;46.422;18.772;2023-04-09T06:10:54;37.22;;;23.42;;
45198;SDS011;30941;46.422;18.772;2023-04-09T06:13:19;34.90;;;23.27;;
45198;SDS011;30941;46.422;18.772;2023-04-09T06:15:45;29.63;;;20.70;;
45198;SDS011;30941;46.422;18.772;2023-04-09T06:18:10;31.50;;;21.42;;
45198;SDS011;30941;46.422;18.772;2023-04-09T06:20:36;34.72;;;22.30;;
45198;SDS011;30941;46.422;18.772;2023-04-09T06:23:01;28.70;;;19.25;;
45198;SDS011;30941;46.422;18.772;2023-04-09T06:25:27;31.15;;;20.95;;
45198;SDS011;30941;46.422;18.772;2023-04-09T06:27:52;29.95;;;19.60;;
45198;SDS011;30941;46.422;18.772;2023-04-09T06:30:18;32.90;;;21.35;;
45198;SDS011;30941;46.422;18.772;2023-04-09T06:32:43;31.63;;;21.02;;
45198;SDS011;30941;46.422;18.772;2023-04-09T06:35:09;30.30;;;20.58;;
45198;SDS011;30941;46.422;18.772;2023-04-09T06:37:35;34.33;;;22.17;;
45198;SDS011;30941;46.422;18.772;2023-04-09T06:40:00;32.58;;;23.25;;
45198;SDS011;30941;46.422;18.772;2023-04-09T06:42:26;32.63;;;22.33;;
45198;SDS011;30941;46.422;18.772;2023-04-09T06:44:51;35.53;;;23.35;;
45198;SDS011;30941;46.422;18.772;2023-04-09T06:47:16;32.72;;;22.85;;
45198;SDS011;30941;46.422;18.772;2023-04-09T06:49:42;35.47;;;23.08;;
45198;SDS011;30941;46.422;18.772;2023-04-09T06:52:07;41.85;;;24.90;;
45198;SDS011;30941;46.422;18.772;2023-04-09T06:54:32;39.47;;;24.98;;
45198;SDS011;30941;46.422;18.772;2023-04-09T06:56:58;40.13;;;25.02;;
45198;SDS011;30941;46.422;18.772;2023-04-09T06:59:23;40.47;;;26.25;;
45198;SDS011;30941;46.422;18.772;2023-04-09T07:01:48;42.72;;;24.65;;
45198;SDS011;30941;46.422;18.772;2023-04-09T07:04:14;40.47;;;26.55;;
45198;SDS011;30941;46.422;18.772;2023-04-09T07:06:39;37.55;;;25.20;;
45198;SDS011;30941;46.422;18.772;2023-04-09T07:09:05;39.22;;;25.10;;
45198;SDS011;30941;46.422;18.772;2023-04-09T07:11:30;39.33;;;25.50;;
45198;SDS011;30941;46.422;18.772;2023-04-09T07:13:56;35.53;;;24.55;;
45198;SDS011;30941;46.422;18.772;2023-04-09T07:16:22;38.15;;;24.52;;
45198;SDS011;30941;46.422;18.772;2023-04-09T07:18:47;38.55;;;25.05;;
45198;SDS011;30941;46.422;18.772;2023-04-09T07:21:12;38.53;;;24.88;;
45198;SDS011;30941;46.422;18.772;2023-04-09T07:23:38;37.42;;;24.85;;
45198;SDS011;30941;46.422;18.772;2023-04-09T07:26:04;34.70;;;22.83;;
45198;SDS011;30941;46.422;18.772;2023-04-09T07:28:30;35.88;;;22.85;;
45198;SDS011;30941;46.422;18.772;2023-04-09T07:30:55;38.60;;;24.13;;
45198;SDS011;30941;46.422;18.772;2023-04-09T07:33:21;34.75;;;23.02;;
45198;SDS011;30941;46.422;18.772;2023-04-09T07:35:46;33.13;;;22.20;;
45198;SDS011;30941;46.422;18.772;2023-04-09T07:38:12;32.78;;;21.23;;
45198;SDS011;30941;46.422;18.772;2023-04-09T07:40:37;31.00;;;20.90;;
45198;SDS011;30941;46.422;18.772;2023-04-09T07:43:03;32.40;;;21.00;;
45198;SDS011;30941;46.422;18.772;2023-04-09T07:45:29;31.52;;;20.55;;
45198;SDS011;30941;46.422;18.772;2023-04-09T07:47:54;35.22;;;22.02;;
45198;SDS011;30941;46.422;18.772;2023-04-09T07:50:19;36.80;;;22.52;;
45198;SDS011;30941;46.422;18.772;2023-04-09T07:52:45;33.17;;;21.45;;
45198;SDS011;30941;46.422;18.772;2023-04-09T07:55:11;34.30;;;20.70;;
45198;SDS011;30941;46.422;18.772;2023-04-09T07:57:36;29.92;;;20.13;;
45198;SDS011;30941;46.422;18.772;2023-04-09T08:00:02;29.10;;;19.65;;
45198;SDS011;30941;46.422;18.772;2023-04-09T08:02:28;27.50;;;17.85;;
45198;SDS011;30941;46.422;18.772;2023-04-09T08:04:54;27.42;;;18.88;;
45198;SDS011;30941;46.422;18.772;2023-04-09T08:07:20;28.45;;;18.27;;
45198;SDS011;30941;46.422;18.772;2023-04-09T08:09:45;23.60;;;16.73;;
45198;SDS011;30941;46.422;18.772;2023-04-09T08:12:11;26.17;;;17.45;;
45198;SDS011;30941;46.422;18.772;2023-04-09T08:14:36;23.65;;;17.17;;
45198;SDS011;30941;46.422;18.772;2023-04-09T08:17:01;22.10;;;15.98;;
45198;SDS011;30941;46.422;18.772;2023-04-09T08:19:27;20.10;;;14.65;;
45198;SDS011;30941;46.422;18.772;2023-04-09T08:21:52;21.88;;;14.57;;
45198;SDS011;30941;46.422;18.772;2023-04-09T08:24:18;23.52;;;14.32;;
45198;SDS011;30941;46.422;18.772;2023-04-09T08:26:43;22.27;;;13.88;;
45198;SDS011;30941;46.422;18.772;2023-04-09T08:29:09;19.02;;;12.82;;
45198;SDS011;30941;46.422;18.772;2023-04-09T08:31:36;18.02;;;12.45;;
45198;SDS011;30941;46.422;18.772;2023-04-09T08:34:01;20.83;;;14.10;;
45198;SDS011;30941;46.422;18.772;2023-04-09T08:36:27;20.65;;;14.38;;
45198;SDS011;30941;46.422;18.772;2023-04-09T08:38:52;22.13;;;14.88;;
45198;SDS011;30941;46.422;18.772;2023-04-09T08:41:20;19.77;;;13.45;;
45198;SDS011;30941;46.422;18.772;2023-04-09T08:43:46;21.08;;;15.15;;
45198;SDS011;30941;46.422;18.772;2023-04-09T08:46:13;21.85;;;14.57;;
45198;SDS011;30941;46.422;18.772;2023-04-09T08:48:40;19.73;;;13.50;;
45198;SDS011;30941;46.422;18.772;2023-04-09T08:51:07;16.05;;;11.85;;
45198;SDS011;30941;46.422;18.772;2023-04-09T08:53:37;19.92;;;12.45;;
45198;SDS011;30941;46.422;18.772;2023-04-09T08:56:02;20.45;;;13.80;;
45198;SDS011;30941;46.422;18.772;2023-04-09T08:58:28;17.42;;;12.85;;
45198;SDS011;30941;46.422;18.772;2023-04-09T09:00:53;21.58;;;14.27;;
45198;SDS011;30941;46.422;18.772;2023-04-09T09:03:19;16.30;;;11.95;;
45198;SDS011;30941;46.422;18.772;2023-04-09T09:05:44;18.17;;;13.15;;
45198;SDS011;30941;46.422;18.772;2023-04-09T09:08:11;25.42;;;14.38;;
45198;SDS011;30941;46.422;18.772;2023-04-09T09:10:44;18.15;;;12.52;;
45198;SDS011;30941;46.422;18.772;2023-04-09T09:15:41;18.95;;;14.05;;
45198;SDS011;30941;46.422;18.772;2023-04-09T09:18:07;18.77;;;12.65;;
45198;SDS011;30941;46.422;18.772;2023-04-09T09:20:32;18.80;;;13.40;;
45198;SDS011;30941;46.422;18.772;2023-04-09T09:22:58;20.23;;;13.05;;
45198;SDS011;30941;46.422;18.772;2023-04-09T09:25:24;18.50;;;12.20;;
45198;SDS011;30941;46.422;18.772;2023-04-09T09:27:50;17.35;;;12.25;;
45198;SDS011;30941;46.422;18.772;2023-04-09T09:32:48;21.77;;;14.60;;
45198;SDS011;30941;46.422;18.772;2023-04-09T09:35:19;19.38;;;13.70;;
45198;SDS011;30941;46.422;18.772;2023-04-09T09:37:44;19.88;;;12.90;;
45198;SDS011;30941;46.422;18.772;2023-04-09T09:40:10;16.50;;;12.65;;
45198;SDS011;30941;46.422;18.772;2023-04-09T09:42:36;18.85;;;12.57;;
45198;SDS011;30941;46.422;18.772;2023-04-09T09:45:02;17.10;;;12.40;;
45198;SDS011;30941;46.422;18.772;2023-04-09T09:47:41;18.35;;;12.70;;
45198;SDS011;30941;46.422;18.772;2023-04-09T09:50:07;18.90;;;13.63;;
45198;SDS011;30941;46.422;18.772;2023-04-09T09:52:33;21.05;;;14.52;;
45198;SDS011;30941;46.422;18.772;2023-04-09T09:54:58;19.92;;;13.52;;
45198;SDS011;30941;46.422;18.772;2023-04-09T09:57:25;18.40;;;13.23;;
45198;SDS011;30941;46.422;18.772;2023-04-09T09:59:53;18.52;;;13.43;;
45198;SDS011;30941;46.422;18.772;2023-04-09T10:02:23;17.45;;;12.90;;
45198;SDS011;30941;46.422;18.772;2023-04-09T10:04:50;20.40;;;14.57;;
45198;SDS011;30941;46.422;18.772;2023-04-09T10:07:19;18.10;;;13.05;;
45198;SDS011;30941;46.422;18.772;2023-04-09T10:09:47;18.10;;;13.05;;
45198;SDS011;30941;46.422;18.772;2023-04-09T10:12:14;15.23;;;12.18;;
45198;SDS011;30941;46.422;18.772;2023-04-09T10:14:39;18.00;;;13.40;;
45198;SDS011;30941;46.422;18.772;2023-04-09T10:17:05;17.88;;;13.93;;
45198;SDS011;30941;46.422;18.772;2023-04-09T10:19:31;14.80;;;11.32;;
45198;SDS011;30941;46.422;18.772;2023-04-09T10:22:04;15.15;;;12.23;;
45198;SDS011;30941;46.422;18.772;2023-04-09T10:24:32;17.77;;;12.07;;
45198;SDS011;30941;46.422;18.772;2023-04-09T10:27:16;14.95;;;10.85;;
45198;SDS011;30941;46.422;18.772;2023-04-09T10:29:43;14.70;;;11.68;;
45198;SDS011;30941;46.422;18.772;2023-04-09T10:32:09;16.05;;;11.38;;
45198;SDS011;30941;46.422;18.772;2023-04-09T10:34:39;16.30;;;11.57;;
45198;SDS011;30941;46.422;18.772;2023-04-09T10:37:08;14.18;;;11.27;;
45198;SDS011;30941;46.422;18.772;2023-04-09T10:39:38;16.92;;;11.40;;
45198;SDS011;30941;46.422;18.772;2023-04-09T10:42:12;14.13;;;10.77;;
45198;SDS011;30941;46.422;18.772;2023-04-09T10:44:39;14.82;;;10.60;;
45198;SDS011;30941;46.422;18.772;2023-04-09T10:47:08;15.63;;;10.50;;
45198;SDS011;30941;46.422;18.772;2023-04-09T10:49:38;14.90;;;10.50;;
45198;SDS011;30941;46.422;18.772;2023-04-09T10:59:46;13.98;;;10.77;;
45198;SDS011;30941;46.422;18.772;2023-04-09T11:07:53;15.68;;;11.02;;
45198;SDS011;30941;46.422;18.772;2023-04-09T11:10:23;16.38;;;11.57;;
45198;SDS011;30941;46.422;18.772;2023-04-09T11:12:49;15.77;;;11.57;;
45198;SDS011;30941;46.422;18.772;2023-04-09T11:15:18;14.35;;;10.50;;
45198;SDS011;30941;46.422;18.772;2023-04-09T11:17:47;14.07;;;9.57;;
45198;SDS011;30941;46.422;18.772;2023-04-09T11:20:13;15.63;;;10.27;;
45198;SDS011;30941;46.422;18.772;2023-04-09T11:22:40;12.60;;;8.60;;
45198;SDS011;30941;46.422;18.772;2023-04-09T11:25:05;13.65;;;9.35;;
45198;SDS011;30941;46.422;18.772;2023-04-09T11:27:35;13.52;;;9.15;;
45198;SDS011;30941;46.422;18.772;2023-04-09T11:30:01;11.95;;;9.55;;
45198;SDS011;30941;46.422;18.772;2023-04-09T11:32:29;14.05;;;9.77;;
45198;SDS011;30941;46.422;18.772;2023-04-09T11:34:55;15.32;;;10.88;;
45198;SDS011;30941;46.422;18.772;2023-04-09T11:37:22;14.75;;;10.38;;
45198;SDS011;30941;46.422;18.772;2023-04-09T11:39:48;14.10;;;9.68;;
45198;SDS011;30941;46.422;18.772;2023-04-09T11:42:15;15.93;;;10.88;;
45198;SDS011;30941;46.422;18.772;2023-04-09T11:44:42;17.67;;;11.40;;
45198;SDS011;30941;46.422;18.772;2023-04-09T11:47:08;16.52;;;11.90;;
45198;SDS011;30941;46.422;18.772;2023-04-09T11:49:35;13.75;;;10.38;;
45198;SDS011;30941;46.422;18.772;2023-04-09T11:52:00;14.32;;;10.40;;
45198;SDS011;30941;46.422;18.772;2023-04-09T11:54:31;12.70;;;9.88;;
45198;SDS011;30941;46.422;18.772;2023-04-09T11:56:58;13.38;;;10.27;;
45198;SDS011;30941;46.422;18.772;2023-04-09T11:59:23;14.70;;;10.50;;
45198;SDS011;30941;46.422;18.772;2023-04-09T12:01:49;14.95;;;10.57;;
45198;SDS011;30941;46.422;18.772;2023-04-09T12:04:19;14.43;;;10.23;;
45198;SDS011;30941;46.422;18.772;2023-04-09T12:06:45;13.27;;;9.93;;
45198;SDS011;30941;46.422;18.772;2023-04-09T12:09:11;15.75;;;11.40;;
45198;SDS011;30941;46.422;18.772;2023-04-09T12:11:38;17.52;;;10.48;;
45198;SDS011;30941;46.422;18.772;2023-04-09T12:14:06;15.88;;;9.75;;
45198;SDS011;30941;46.422;18.772;2023-04-09T12:16:34;15.73;;;10.70;;
45198;SDS011;30941;46.422;18.772;2023-04-09T12:19:04;12.68;;;9.77;;
45198;SDS011;30941;46.422;18.772;2023-04-09T12:21:49;12.95;;;9.75;;
45198;SDS011;30941;46.422;18.772;2023-04-09T12:24:17;12.98;;;9.82;;
45198;SDS011;30941;46.422;18.772;2023-04-09T12:26:44;13.05;;;9.13;;
45198;SDS011;30941;46.422;18.772;2023-04-09T12:29:10;17.27;;;11.00;;
45198;SDS011;30941;46.422;18.772;2023-04-09T12:31:35;15.60;;;10.35;;
45198;SDS011;30941;46.422;18.772;2023-04-09T12:34:01;12.77;;;10.25;;
45198;SDS011;30941;46.422;18.772;2023-04-09T12:36:26;13.77;;;9.73;;
45198;SDS011;30941;46.422;18.772;2023-04-09T12:38:51;11.52;;;8.82;;
45198;SDS011;30941;46.422;18.772;2023-04-09T12:41:17;12.15;;;8.88;;
45198;SDS011;30941;46.422;18.772;2023-04-09T12:43:42;15.68;;;10.63;;
45198;SDS011;30941;46.422;18.772;2023-04-09T12:46:08;16.08;;;10.18;;
45198;SDS011;30941;46.422;18.772;2023-04-09T12:48:33;12.70;;;8.82;;
45198;SDS011;30941;46.422;18.772;2023-04-09T12:50:59;14.10;;;9.18;;
45198;SDS011;30941;46.422;18.772;2023-04-09T12:53:25;11.77;;;8.80;;
45198;SDS011;30941;46.422;18.772;2023-04-09T12:55:50;13.77;;;9.13;;
45198;SDS011;30941;46.422;18.772;2023-04-09T12:58:16;11.90;;;8.82;;
45198;SDS011;30941;46.422;18.772;2023-04-09T13:00:41;11.30;;;7.95;;
45198;SDS011;30941;46.422;18.772;2023-04-09T13:03:07;11.00;;;8.30;;
45198;SDS011;30941;46.422;18.772;2023-04-09T13:05:33;13.13;;;9.13;;
45198;SDS011;30941;46.422;18.772;2023-04-09T13:07:59;12.82;;;8.57;;
45198;SDS011;30941;46.422;18.772;2023-04-09T13:10:28;13.70;;;9.07;;
45198;SDS011;30941;46.422;18.772;2023-04-09T13:12:56;10.27;;;7.53;;
45198;SDS011;30941;46.422;18.772;2023-04-09T13:15:21;10.73;;;7.65;;
45198;SDS011;30941;46.422;18.772;2023-04-09T13:17:47;12.23;;;9.10;;
45198;SDS011;30941;46.422;18.772;2023-04-09T13:20:12;14.77;;;10.23;;
45198;SDS011;30941;46.422;18.772;2023-04-09T13:22:38;12.93;;;9.23;;
45198;SDS011;30941;46.422;18.772;2023-04-09T13:25:03;9.98;;;7.25;;
45198;SDS011;30941;46.422;18.772;2023-04-09T13:27:29;11.20;;;7.68;;
45198;SDS011;30941;46.422;18.772;2023-04-09T13:29:55;12.45;;;8.95;;
45198;SDS011;30941;46.422;18.772;2023-04-09T13:32:20;11.70;;;8.27;;
45198;SDS011;30941;46.422;18.772;2023-04-09T13:34:47;11.52;;;7.88;;
45198;SDS011;30941;46.422;18.772;2023-04-09T13:37:13;10.93;;;8.05;;
45198;SDS011;30941;46.422;18.772;2023-04-09T13:39:38;13.38;;;9.63;;
45198;SDS011;30941;46.422;18.772;2023-04-09T13:42:04;13.20;;;8.27;;
45198;SDS011;30941;46.422;18.772;2023-04-09T13:44:29;11.60;;;8.70;;
45198;SDS011;30941;46.422;18.772;2023-04-09T13:46:55;11.00;;;8.35;;
45198;SDS011;30941;46.422;18.772;2023-04-09T13:49:20;14.30;;;9.95;;
45198;SDS011;30941;46.422;18.772;2023-04-09T13:51:45;13.32;;;9.40;;
45198;SDS011;30941;46.422;18.772;2023-04-09T13:54:11;14.20;;;10.00;;
45198;SDS011;30941;46.422;18.772;2023-04-09T13:56:37;15.80;;;9.95;;
45198;SDS011;30941;46.422;18.772;2023-04-09T13:59:03;15.88;;;10.52;;
45198;SDS011;30941;46.422;18.772;2023-04-09T14:01:28;17.88;;;12.85;;
45198;SDS011;30941;46.422;18.772;2023-04-09T14:03:54;15.63;;;11.35;;
45198;SDS011;30941;46.422;18.772;2023-04-09T14:06:19;13.48;;;10.13;;
45198;SDS011;30941;46.422;18.772;2023-04-09T14:08:45;13.50;;;11.15;;
45198;SDS011;30941;46.422;18.772;2023-04-09T14:11:10;13.45;;;10.77;;
45198;SDS011;30941;46.422;18.772;2023-04-09T14:13:38;14.00;;;11.02;;
45198;SDS011;30941;46.422;18.772;2023-04-09T14:16:04;11.50;;;8.95;;
45198;SDS011;30941;46.422;18.772;2023-04-09T14:18:30;10.70;;;8.50;;
45198;SDS011;30941;46.422;18.772;2023-04-09T14:20:56;13.13;;;9.60;;
45198;SDS011;30941;46.422;18.772;2023-04-09T14:23:22;14.32;;;10.90;;
45198;SDS011;30941;46.422;18.772;2023-04-09T14:25:47;13.77;;;10.07;;
45198;SDS011;30941;46.422;18.772;2023-04-09T14:28:13;12.57;;;9.05;;
45198;SDS011;30941;46.422;18.772;2023-04-09T14:30:38;14.35;;;9.90;;
45198;SDS011;30941;46.422;18.772;2023-04-09T14:33:03;13.38;;;9.90;;
45198;SDS011;30941;46.422;18.772;2023-04-09T14:35:29;15.25;;;9.38;;